Terminal Aerodrome Forecast
Issued by NWS Sioux Falls, SD

Home | Current Version | Previous Version | Text Only | Print | Product List | Glossary On
Versions: 1 2 3 4 5 6 7 8 9 10 11 12 13 14 15 16 17 18 19 20 21 22 23 24
000
FTUS43 KFSD 060520
TAFSUX
TAF
KSUX 060520Z 0606/0706 VRB05KT P6SM SCT200
     FM061000 06006KT P6SM VCSH BKN200
     FM061400 09006KT P6SM VCSH BKN100
     FM061800 08006KT P6SM VCSH BKN100 PROB30 0618/0624 4SM TSRA
      OVC050CB=

USA.gov is the U.S. government's official web portal to all federal, state and local government web resources and services.